Time;durP1;ratioP1;P1;durP2;ratioP2;P2;SDS_P1;SDS_P2;PMS_P1;PMS_P2;Temp;Humidity;BMP_temperature;BMP_pressure;BME280_temperature;BME280_humidity;BME280_pressure;Samples;Min_cycle;Max_cycle;Signal;HPM_P1;HPM_P2
2022/06/10 00:02:12;;;;;;;1.30;1.00;;;18.00;74.70;;;18.55;47.60;99225.72;4859023;29;118806;-90
2022/06/10 00:04:57;;;;;;;1.50;1.10;;;18.00;74.90;;;18.53;47.51;99222.44;4855834;29;123357;-90
2022/06/10 00:11:10;;;;;;;1.60;1.20;;;18.00;75.00;;;18.49;47.73;99227.13;4871263;28;120827;-88
2022/06/10 00:17:19;;;;;;;2.23;1.40;;;17.90;75.20;;;18.41;47.87;99219.72;4862190;29;125219;-91
2022/06/10 00:19:46;;;;;;;1.73;1.30;;;17.90;75.40;;;18.39;48.09;99219.25;4861168;29;123846;-90
2022/06/10 00:22:33;;;;;;;1.53;1.20;;;17.90;75.50;;;18.37;48.02;99218.78;4853313;29;119388;-90
2022/06/10 00:24:59;;;;;;;1.60;1.13;;;17.90;75.60;;;18.38;48.29;99225.22;4868188;28;118792;-89
2022/06/10 00:27:46;;;;;;;1.47;1.30;;;17.80;75.70;;;18.36;48.33;99224.75;4871848;29;123535;-90
2022/06/10 00:30:53;;;;;;;2.30;1.27;;;17.80;75.90;;;18.33;48.26;99217.88;4871824;28;123567;-89
2022/06/10 00:33:20;;;;;;;1.93;1.00;;;17.80;76.00;;;18.31;48.49;99218.22;4886767;28;119898;-91
2022/06/10 00:36:09;;;;;;;2.47;1.50;;;17.80;76.10;;;18.30;48.46;99224.16;4857927;29;119012;-91
2022/06/10 00:39:34;;;;;;;1.77;1.17;;;17.70;76.10;;;18.24;48.34;99217.19;4868461;29;123714;-90
2022/06/10 00:42:57;;;;;;;2.07;1.20;;;17.80;76.20;;;18.19;48.70;99217.41;4870909;29;124402;-89
2022/06/10 00:53:43;;;;;;;1.20;1.10;;;17.60;76.40;;;18.04;48.64;99228.19;4866018;29;125262;-89
2022/06/10 01:00:06;;;;;;;1.90;1.10;;;17.50;76.50;;;18.01;48.90;99222.47;4868075;29;120439;-90
2022/06/10 01:02:52;;;;;;;2.07;1.30;;;17.50;76.70;;;17.97;48.98;99221.53;4874785;28;118102;-90
2022/06/10 01:05:38;;;;;;;5.10;1.50;;;17.50;76.80;;;17.92;48.96;99230.16;4880145;28;123885;-90
2022/06/10 01:12:43;;;;;;;3.03;1.40;;;17.40;77.10;;;17.86;49.36;99232.38;4870435;28;121314;-89
2022/06/10 01:15:28;;;;;;;1.50;1.40;;;17.40;77.30;;;17.87;49.31;99234.03;4895287;28;120649;-90
2022/06/10 01:21:55;;;;;;;2.87;1.27;;;17.40;77.60;;;17.88;49.38;99235.66;4887804;28;124815;-91
2022/06/10 01:25:12;;;;;;;2.83;1.43;;;17.30;77.80;;;17.84;49.52;99229.97;4865169;29;120097;-90
2022/06/10 01:28:17;;;;;;;1.17;1.00;;;17.30;77.90;;;17.84;49.56;99231.94;4853463;29;118826;-90
2022/06/10 01:34:33;;;;;;;1.83;1.23;;;17.30;78.20;;;17.80;49.81;99233.78;4839024;29;124811;-89
2022/06/10 01:37:28;;;;;;;2.80;1.60;;;17.20;78.30;;;17.78;49.93;99236.09;4849395;29;118760;-91
2022/06/10 01:51:23;;;;;;;1.50;1.30;;;17.20;79.00;;;17.65;50.25;99244.50;4860179;29;120478;-89
2022/06/10 01:57:41;;;;;;;2.27;1.50;;;17.20;79.40;;;17.63;50.57;99251.59;4861046;29;125104;-89
2022/06/10 02:00:16;;;;;;;2.73;1.70;;;17.10;79.40;;;17.62;50.46;99245.19;4852397;29;124366;-90
2022/06/10 02:06:36;;;;;;;1.83;1.40;;;17.10;79.70;;;17.57;50.80;99252.97;4849583;29;119414;-90
2022/06/10 02:09:30;;;;;;;2.30;1.30;;;17.10;79.90;;;17.56;50.68;99254.94;4858879;29;122505;-91
2022/06/10 02:15:45;;;;;;;4.53;1.80;;;17.00;80.00;;;17.51;50.80;99255.16;4852953;29;121298;-89
2022/06/10 02:19:02;;;;;;;2.20;1.20;;;17.00;80.30;;;17.48;50.89;99258.66;4858123;29;119756;-89
2022/06/10 02:25:21;;;;;;;1.83;1.47;;;17.00;80.40;;;17.45;51.25;99262.16;4860881;29;124953;-90
2022/06/10 02:32:09;;;;;;;1.73;1.17;;;16.90;80.70;;;17.39;51.13;99263.56;4862521;29;120046;-90
2022/06/10 02:34:38;;;;;;;2.07;1.40;;;16.90;80.80;;;17.37;51.36;99266.69;4857361;28;125055;-90
2022/06/10 02:37:48;;;;;;;2.03;1.50;;;16.90;81.00;;;17.35;51.49;99270.97;4858052;29;124673;-90
2022/06/10 02:44:27;;;;;;;2.20;1.40;;;16.80;81.10;;;17.30;51.47;99265.59;4862142;29;120172;-89
2022/06/10 02:50:54;;;;;;;2.20;1.40;;;16.80;81.40;;;17.19;51.77;99271.66;4861031;29;124992;-90
2022/06/10 02:53:22;;;;;;;2.00;1.43;;;16.70;81.60;;;17.15;52.02;99281.06;4859969;29;118845;-90
2022/06/10 02:56:28;;;;;;;3.30;1.67;;;16.70;81.70;;;17.11;52.03;99280.09;4857623;29;119637;-90
2022/06/10 03:03:29;;;;;;;1.70;1.37;;;16.50;81.80;;;17.02;52.07;99283.00;4861235;29;124757;-90
2022/06/10 03:06:18;;;;;;;1.53;1.20;;;16.50;82.10;;;17.04;52.36;99282.66;4850537;29;119392;-91
2022/06/10 03:09:19;;;;;;;1.67;1.30;;;16.50;82.30;;;17.03;52.37;99292.19;4856996;29;119728;-89
2022/06/10 03:12:15;;;;;;;1.47;1.37;;;16.50;82.40;;;17.02;52.31;99296.94;4847183;29;123743;-89
2022/06/10 03:18:43;;;;;;;1.50;1.30;;;16.50;82.50;;;16.99;52.29;99308.81;4860095;29;120727;-90
2022/06/10 03:21:39;;;;;;;1.60;1.50;;;16.40;82.50;;;16.97;52.35;99313.91;4857013;29;120317;-87
2022/06/10 03:31:44;;;;;;;1.57;1.20;;;16.40;82.70;;;16.90;52.50;99314.47;4887078;28;120402;-90
2022/06/10 03:37:53;;;;;;;1.93;1.30;;;16.40;83.00;;;16.89;52.56;99325.97;4878516;29;125096;-90
2022/06/10 03:44:13;;;;;;;1.23;1.10;;;16.40;83.20;;;16.86;52.81;99327.47;4879947;28;120371;-90
2022/06/10 03:50:32;;;;;;;4.37;2.13;;;16.30;83.30;;;16.86;52.73;99329.44;4862513;29;125158;-90
2022/06/10 03:56:44;;;;;;;4.10;1.70;;;16.30;83.50;;;16.88;53.00;99339.13;4867590;29;120343;-90
2022/06/10 04:02:53;;;;;;;4.67;2.23;;;16.30;83.60;;;16.93;52.88;99335.31;4876276;29;124507;-90
2022/06/10 04:06:16;;;;;;;2.80;1.70;;;16.30;83.70;;;17.01;52.71;99342.78;4863241;29;123618;-92
2022/06/10 04:08:43;;;;;;;1.87;1.60;;;16.40;83.90;;;17.08;52.51;99343.03;4866610;29;119040;-89
2022/06/10 04:11:47;;;;;;;2.90;1.40;;;16.40;83.90;;;17.09;52.65;99341.09;4857793;29;116811;-91
2022/06/10 04:17:57;;;;;;;2.30;1.60;;;16.50;83.70;;;17.11;52.64;99347.13;4856013;29;124877;-89
2022/06/10 04:20:30;;;;;;;2.07;1.70;;;16.50;83.70;;;17.12;52.85;99360.75;4865451;29;120042;-89
2022/06/10 04:22:56;;;;;;;2.03;1.50;;;16.60;83.70;;;17.12;52.71;99363.53;4855532;29;119230;-89
2022/06/10 04:26:01;;;;;;;1.70;1.47;;;16.60;83.70;;;17.08;52.76;99362.56;4872986;29;124813;-90
2022/06/10 04:28:48;;;;;;;2.67;1.30;;;16.60;83.60;;;17.10;52.77;99356.66;4841825;29;123163;-91
2022/06/10 04:31:14;;;;;;;2.80;1.70;;;16.60;83.70;;;17.12;52.78;99360.75;4872821;28;119040;-90
2022/06/10 04:33:42;;;;;;;2.10;1.50;;;16.60;84.40;;;17.15;52.58;99357.25;4872402;28;116600;-90
2022/06/10 04:36:16;;;;;;;1.63;1.27;;;16.60;83.70;;;17.18;52.73;99359.38;4870825;28;123212;-91
2022/06/10 04:39:40;;;;;;;2.87;1.67;;;16.70;83.80;;;17.20;52.65;99361.84;4868041;29;123382;-90
2022/06/10 04:45:57;;;;;;;2.10;1.60;;;16.70;83.70;;;17.19;52.62;99363.81;4883243;28;120069;-89
2022/06/10 04:53:02;;;;;;;1.50;1.20;;;16.60;83.60;;;17.24;52.33;99368.34;4871843;28;124783;-89
2022/06/10 04:55:29;;;;;;;3.10;2.03;;;16.70;83.60;;;17.26;52.47;99366.03;4870227;29;119075;-90
2022/06/10 04:57:57;;;;;;;2.40;1.50;;;16.70;83.60;;;17.28;52.21;99366.50;4872702;29;118632;-90
2022/06/10 05:01:22;;;;;;;1.93;1.27;;;16.80;83.60;;;17.31;52.23;99365.00;4875405;28;123985;-90
2022/06/10 05:03:48;;;;;;;4.07;1.37;;;16.80;83.50;;;17.28;52.30;99369.31;4861475;29;124690;-91
2022/06/10 05:06:17;;;;;;;3.53;1.50;;;16.80;83.40;;;17.28;52.16;99363.72;4847085;29;119893;-91
2022/06/10 05:09:03;;;;;;;2.10;1.30;;;16.80;83.30;;;17.29;52.12;99370.13;4866443;29;118340;-90
2022/06/10 05:11:32;;;;;;;2.60;1.77;;;16.80;83.20;;;17.29;51.96;99368.13;4864119;28;123893;-90
2022/06/10 05:14:18;;;;;;;3.77;1.70;;;16.80;83.40;;;17.32;52.05;99372.22;4864529;29;122242;-90
2022/06/10 05:20:37;;;;;;;2.67;1.73;;;16.80;83.20;;;17.31;51.98;99373.41;4862417;28;120585;-90
2022/06/10 05:23:04;;;;;;;2.10;1.53;;;16.80;83.20;;;17.33;51.91;99385.00;4853597;28;122425;-91
2022/06/10 05:25:32;;;;;;;2.70;1.33;;;16.80;83.20;;;17.37;51.94;99383.19;4865894;28;123869;-91
2022/06/10 05:32:00;;;;;;;5.30;2.00;;;16.90;83.20;;;17.45;51.81;99390.66;4856141;29;119243;-92
2022/06/10 05:34:48;;;;;;;2.80;1.80;;;16.90;83.20;;;17.51;51.91;99389.28;4873001;28;123843;-91
2022/06/10 05:37:53;;;;;;;2.00;1.70;;;16.90;83.10;;;17.62;51.67;99390.50;4863367;29;123231;-91
2022/06/10 05:40:24;;;;;;;1.97;1.40;;;17.00;83.20;;;17.72;51.58;99388.41;4859801;29;119551;-91
2022/06/10 05:43:29;;;;;;;2.50;1.90;;;17.10;83.30;;;17.79;51.49;99388.69;4854903;29;117882;-91
2022/06/10 05:46:52;;;;;;;2.10;1.50;;;17.10;83.10;;;17.88;51.42;99387.41;4864682;28;124425;-91
2022/06/10 05:49:20;;;;;;;3.40;1.60;;;17.20;83.10;;;18.01;51.24;99387.44;4857042;29;123983;-91
2022/06/10 05:51:48;;;;;;;4.30;1.60;;;17.30;83.20;;;18.10;51.19;99394.56;4847581;28;119328;-90
2022/06/10 05:54:16;;;;;;;4.00;1.70;;;17.40;83.20;;;18.18;51.03;99397.59;4851035;29;117468;-91
2022/06/10 05:57:20;;;;;;;3.27;1.90;;;17.50;83.20;;;18.27;50.97;99401.13;4861507;28;123555;-90
2022/06/10 05:59:49;;;;;;;1.93;1.50;;;17.60;83.20;;;18.37;50.99;99392.22;4862965;28;123327;-91
2022/06/10 06:02:16;;;;;;;5.90;2.10;;;18.20;83.70;;;18.45;50.96;99396.88;4838842;29;119434;-90
2022/06/10 06:05:02;;;;;;;3.83;2.07;;;17.70;83.20;;;18.48;50.84;99409.38;4855037;28;119296;-90
2022/06/10 06:07:31;;;;;;;4.30;2.23;;;17.80;83.10;;;18.55;50.94;99402.03;4849395;28;124109;-91
2022/06/10 06:09:57;;;;;;;11.37;1.60;;;17.90;83.20;;;18.65;50.86;99397.94;4856520;28;123246;-91
2022/06/10 06:13:20;;;;;;;3.80;1.70;;;17.90;83.10;;;18.72;50.71;99409.34;4856170;28;120081;-91
2022/06/10 06:15:47;;;;;;;2.90;1.67;;;18.00;83.00;;;18.81;50.58;99406.47;4850178;29;119823;-91
2022/06/10 06:18:33;;;;;;;2.73;1.50;;;18.10;82.90;;;18.91;50.45;99410.75;4854767;28;124074;-92
2022/06/10 06:21:00;;;;;;;2.70;1.30;;;18.20;82.80;;;19.00;50.26;99413.44;4854750;28;123751;-91
2022/06/10 06:23:29;;;;;;;2.53;1.50;;;18.30;82.80;;;19.09;50.24;99416.91;4855887;28;119131;-89
2022/06/10 06:25:55;;;;;;;3.03;1.60;;;18.30;82.60;;;19.17;49.99;99410.34;4852386;28;118936;-92
2022/06/10 06:28:22;;;;;;;3.13;1.70;;;18.40;82.50;;;19.24;49.91;99407.75;4858179;28;123804;-91
2022/06/10 06:30:49;;;;;;;3.53;1.80;;;18.50;82.40;;;19.32;49.68;99414.38;4855804;28;124042;-93
2022/06/10 06:33:17;;;;;;;1.93;1.50;;;18.60;82.20;;;19.37;49.56;99414.94;4855406;28;119693;-92
2022/06/10 06:35:51;;;;;;;2.70;1.60;;;18.60;82.00;;;19.45;49.50;99409.50;4856951;28;118339;-91
2022/06/10 06:38:20;;;;;;;3.67;1.90;;;18.70;81.90;;;19.51;49.64;99417.31;4837924;28;123812;-90
2022/06/10 06:40:48;;;;;;;3.63;2.20;;;18.80;81.90;;;19.57;49.37;99415.88;4850289;28;123940;-91
2022/06/10 06:43:15;;;;;;;3.77;1.77;;;18.80;81.60;;;19.61;49.13;99422.44;4852200;28;118864;-90
2022/06/10 06:45:43;;;;;;;2.57;1.60;;;18.90;81.50;;;19.68;49.23;99416.22;4849947;28;119717;-90
2022/06/10 06:48:14;;;;;;;3.90;2.13;;;19.00;81.50;;;19.75;49.08;99424.84;4858934;28;124787;-92
2022/06/10 06:50:49;;;;;;;4.20;2.70;;;19.00;81.40;;;19.84;48.72;99419.88;4865312;28;123811;-91
2022/06/10 06:53:15;;;;;;;9.67;2.73;;;19.10;81.20;;;19.91;48.74;99422.06;4830658;29;117387;-92
2022/06/10 06:55:42;;;;;;;4.67;2.37;;;19.20;81.20;;;19.98;48.43;99418.63;4834844;29;119384;-91
2022/06/10 06:58:14;;;;;;;3.03;2.10;;;19.20;80.70;;;20.05;48.32;99422.44;4851416;28;123894;-93
2022/06/10 07:00:40;;;;;;;9.73;3.10;;;19.30;80.60;;;20.13;47.87;99411.41;4851058;28;124342;-91
2022/06/10 07:03:07;;;;;;;5.80;2.90;;;19.40;80.30;;;20.17;48.08;99413.09;4841544;28;120590;-90
2022/06/10 07:05:35;;;;;;;9.97;3.60;;;19.50;80.20;;;20.24;47.66;99413.28;4850574;28;119026;-90
2022/06/10 07:08:03;;;;;;;10.20;3.70;;;19.50;79.90;;;20.30;47.79;99413.84;4856552;28;124484;-92
2022/06/10 07:10:32;;;;;;;18.13;5.57;;;19.60;79.80;;;20.36;47.78;99419.97;4856494;28;123771;-92
2022/06/10 07:12:58;;;;;;;10.97;3.70;;;19.60;79.60;;;20.40;47.20;99418.91;4860362;28;119612;-91
2022/06/10 07:15:28;;;;;;;8.73;3.23;;;19.70;79.30;;;20.44;47.48;99424.59;4854936;28;117991;-91
2022/06/10 07:17:55;;;;;;;5.10;2.57;;;19.70;79.10;;;20.48;47.27;99422.69;4833274;28;123150;-91
2022/06/10 07:20:28;;;;;;;5.40;1.80;;;19.80;79.10;;;20.55;47.30;99420.06;4843204;28;123838;-91
2022/06/10 07:22:55;;;;;;;3.33;2.23;;;19.90;79.00;;;20.63;46.88;99416.28;4851896;28;120239;-92
2022/06/10 07:25:22;;;;;;;3.33;1.80;;;19.90;78.90;;;20.71;46.98;99418.09;4834314;28;119732;-92
2022/06/10 07:27:49;;;;;;;6.27;2.70;;;20.00;78.80;;;20.81;46.60;99415.88;4849800;28;124091;-92
2022/06/10 07:30:17;;;;;;;4.77;2.30;;;20.10;78.90;;;20.90;46.81;99425.75;4821581;29;123039;-91
2022/06/10 07:32:44;;;;;;;3.83;2.00;;;20.20;78.80;;;21.00;46.47;99424.34;4848509;28;118198;-91
2022/06/10 07:35:12;;;;;;;4.63;2.30;;;20.30;78.60;;;21.08;46.23;99425.31;4848778;28;118237;-90
2022/06/10 07:37:40;;;;;;;3.13;1.77;;;20.30;78.40;;;21.14;46.34;99418.22;4853798;28;124043;-91
2022/06/10 07:41:56;;;;;;;3.37;1.90;;;18.50;76.40;;;21.21;45.98;99411.94;4838398;28;122700;-89
2022/06/10 07:42:55;;;;;;;3.67;1.80;;;20.50;77.80;;;21.24;46.01;99409.19;4856871;28;119072;-92
2022/06/10 07:45:22;;;;;;;3.53;1.67;;;20.50;77.70;;;21.30;45.89;99404.09;4856528;28;119447;-94
2022/06/10 07:47:48;;;;;;;2.63;1.90;;;20.60;77.60;;;21.36;45.65;99409.06;4856840;28;124315;-93
2022/06/10 07:50:15;;;;;;;4.40;2.20;;;20.60;77.40;;;21.43;45.34;99405.59;4838798;28;123264;-92
2022/06/10 07:52:41;;;;;;;4.67;2.17;;;20.70;77.30;;;21.50;45.48;99402.94;4847942;28;118583;-92
2022/06/10 07:55:08;;;;;;;10.03;4.33;;;20.80;77.10;;;21.50;44.86;99410.56;4854785;28;120431;-92
2022/06/10 07:57:34;;;;;;;8.23;3.90;;;20.80;76.40;;;21.49;45.23;99406.94;4855168;28;123840;-92
2022/06/10 08:00:01;;;;;;;6.97;2.90;;;20.80;76.30;;;21.51;44.78;99404.56;4859511;28;123994;-92
2022/06/10 08:02:27;;;;;;;6.10;2.83;;;20.80;76.30;;;21.55;45.31;99405.47;4849985;28;118513;-93
2022/06/10 08:04:54;;;;;;;6.73;2.50;;;20.90;76.30;;;21.61;44.83;99398.34;4854581;28;118184;-91
2022/06/10 08:07:20;;;;;;;3.70;2.03;;;20.90;76.20;;;21.67;45.06;99403.66;4856304;28;124127;-93
2022/06/10 08:09:47;;;;;;;3.83;1.73;;;21.00;76.20;;;21.70;44.43;99394.47;4857026;28;123748;-92
2022/06/10 08:12:14;;;;;;;8.70;3.60;;;21.00;75.60;;;21.68;44.73;99402.47;4854836;28;119872;-92
2022/06/10 08:14:40;;;;;;;7.97;3.90;;;21.00;75.50;;;21.64;44.67;99398.78;4836613;29;117208;-91
2022/06/10 08:17:07;;;;;;;6.17;2.60;;;21.00;75.30;;;21.67;44.84;99398.03;4834797;29;123104;-93
2022/06/10 08:19:34;;;;;;;7.33;3.10;;;21.00;75.40;;;21.71;44.86;99391.31;4853502;28;121811;-92
2022/06/10 08:24:45;;;;;;;4.80;2.33;;;21.10;75.50;;;21.83;44.90;99390.31;4854631;28;119502;-91
2022/06/10 08:27:12;;;;;;;4.77;2.30;;;21.10;75.50;;;21.90;44.50;99389.66;4851640;28;124010;-92
2022/06/10 08:30:02;;;;;;;2.80;1.50;;;21.20;75.40;;;21.95;44.61;99395.78;4854767;28;123793;-91
2022/06/10 08:32:28;;;;;;;5.43;2.33;;;21.30;75.30;;;21.99;44.22;99393.81;4759996;29;119119;-91
2022/06/10 08:34:55;;;;;;;3.87;2.10;;;21.40;74.90;;;22.02;44.02;99389.44;4761562;29;118975;-91
2022/06/10 08:37:22;;;;;;;3.60;1.80;;;21.30;74.60;;;22.06;44.00;99390.34;4760226;29;124072;-90
2022/06/10 08:39:51;;;;;;;3.80;2.00;;;21.40;74.60;;;22.10;44.07;99387.56;4758230;29;123048;-90
2022/06/10 08:42:39;;;;;;;4.97;2.43;;;21.40;74.30;;;22.13;43.56;99384.00;4764399;29;120814;-91
2022/06/10 08:45:19;;;;;;;6.93;2.70;;;21.50;74.10;;;22.14;43.38;99386.44;4758704;29;120112;-91
2022/06/10 08:48:27;;;;;;;11.00;4.03;;;21.50;73.70;;;22.16;43.21;99388.88;4760777;29;125445;-91
2022/06/10 08:51:26;;;;;;;10.40;3.37;;;21.50;73.20;;;22.19;42.91;99388.16;4757633;29;123667;-92
2022/06/10 08:54:36;;;;;;;6.83;2.90;;;21.50;73.00;;;22.17;42.90;99390.50;4758198;29;119577;-91
2022/06/10 08:57:17;;;;;;;6.03;2.60;;;21.60;72.40;;;22.19;42.62;99394.63;4756219;29;118259;-89
2022/06/10 08:59:48;;;;;;;3.50;2.00;;;21.60;72.30;;;22.22;42.56;99384.59;4759063;29;123974;-92
2022/06/10 09:02:42;;;;;;;5.70;2.80;;;21.60;72.10;;;22.24;42.12;99385.03;4757177;29;123018;-91
2022/06/10 09:05:18;;;;;;;5.93;3.00;;;21.70;71.40;;;22.26;41.96;99385.47;4741709;29;119270;-89
2022/06/10 09:08:04;;;;;;;6.10;2.73;;;21.70;71.10;;;22.30;42.12;99386.34;4756660;29;119115;-89
2022/06/10 09:11:01;;;;;;;20.87;8.50;;;21.70;70.90;;;22.32;41.56;99381.13;4830674;28;125194;-91
2022/06/10 09:13:48;;;;;;;18.07;6.30;;;21.70;70.20;;;22.35;41.08;99391.63;4844776;28;123949;-94
2022/06/10 09:16:45;;;;;;;9.70;4.00;;;21.80;69.80;;;22.39;41.48;99391.72;4844214;28;119279;-92
2022/06/10 09:19:36;;;;;;;9.43;4.43;;;21.80;69.90;;;22.45;41.12;99384.56;4836689;28;119110;-91
2022/06/10 09:22:27;;;;;;;6.50;3.63;;;21.90;69.50;;;22.50;40.50;99385.03;4843852;28;123101;-94
2022/06/10 09:25:32;;;;;;;7.33;3.57;;;21.90;68.50;;;22.52;40.58;99383.88;4847277;28;123992;-94
2022/06/10 09:28:00;;;;;;;8.87;3.47;;;22.00;67.90;;;22.57;40.01;99383.53;4848789;28;119327;-90
2022/06/10 09:30:43;;;;;;;4.73;1.70;;;22.00;67.60;;;22.64;39.48;99384.44;4852168;28;120954;-91
2022/06/10 09:33:19;;;;;;;2.80;1.90;;;22.10;67.00;;;22.65;39.67;99388.09;4835835;29;124767;-92
2022/06/10 09:35:59;;;;;;;3.07;1.60;;;22.10;66.90;;;22.67;39.55;99380.06;4860161;28;124353;-91
2022/06/10 09:38:43;;;;;;;3.70;2.00;;;22.10;66.40;;;22.70;39.56;99379.28;4852330;28;119502;-91
2022/06/10 09:41:58;;;;;;;3.03;1.30;;;22.20;66.50;;;22.72;39.63;99385.38;4853097;28;120018;-90
2022/06/10 09:44:53;;;;;;;3.73;1.63;;;22.20;66.40;;;22.78;39.58;99375.38;4859053;28;124309;-90
2022/06/10 09:47:28;;;;;;;2.10;1.10;;;22.30;66.40;;;22.85;39.57;99386.78;4838497;28;121789;-92
2022/06/10 09:50:17;;;;;;;2.30;1.30;;;22.30;66.30;;;22.93;39.24;99384.88;4843903;28;119681;-91
2022/06/10 09:53:14;;;;;;;2.60;1.30;;;22.30;66.00;;;22.98;39.15;99383.75;4857693;28;118006;-92
2022/06/10 09:56:12;;;;;;;2.83;1.77;;;22.40;66.00;;;23.01;39.07;99375.34;4846182;28;123854;-90
2022/06/10 09:59:26;;;;;;;12.23;4.23;;;22.40;65.60;;;23.03;39.29;99369.34;4855053;28;124140;-91
2022/06/10 10:02:07;;;;;;;8.73;3.43;;;22.40;65.30;;;23.05;38.89;99372.56;4843153;28;119902;-90
2022/06/10 10:04:58;;;;;;;11.23;2.90;;;22.40;65.10;;;23.07;38.93;99370.19;4858104;28;118714;-91
2022/06/10 10:07:54;;;;;;;5.00;2.13;;;22.50;64.70;;;23.09;38.43;99367.81;4849001;28;124594;-91
2022/06/10 10:10:31;;;;;;;6.83;2.60;;;22.50;64.40;;;23.10;38.59;99370.22;4857679;28;123015;-92
2022/06/10 10:13:55;;;;;;;1.90;1.40;;;22.50;64.10;;;23.09;38.28;99368.59;4857880;28;119468;-90
2022/06/10 10:16:34;;;;;;;2.70;1.70;;;22.60;64.00;;;23.15;38.32;99360.63;4852226;28;119693;-89
2022/06/10 10:19:41;;;;;;;3.00;1.70;;;22.60;64.00;;;23.19;38.16;99367.13;4849271;28;125131;-91
2022/06/10 10:22:27;;;;;;;2.50;1.63;;;22.70;63.70;;;23.22;38.01;99359.91;4823801;29;123876;-91
2022/06/10 10:24:54;;;;;;;3.73;1.67;;;22.70;63.00;;;23.28;37.97;99352.72;4855306;28;118268;-91
2022/06/10 10:27:30;;;;;;;5.40;2.03;;;22.70;63.20;;;23.32;37.97;99357.22;4853435;28;119152;-93
2022/06/10 10:30:31;;;;;;;2.00;1.40;;;22.80;63.00;;;23.33;37.53;99361.66;4832045;29;122898;-91
2022/06/10 10:33:09;;;;;;;3.73;1.90;;;22.80;62.70;;;23.39;37.54;99364.94;4845540;28;122985;-92
2022/06/10 10:35:53;;;;;;;3.30;1.50;;;22.80;62.30;;;23.42;37.35;99358.53;4843448;28;120442;-92
2022/06/10 10:38:38;;;;;;;2.90;1.20;;;22.90;62.10;;;23.46;37.40;99352.94;4854699;28;120347;-90
2022/06/10 10:41:42;;;;;;;2.33;1.20;;;22.90;62.00;;;23.49;37.63;99347.34;4855966;28;124479;-92
2022/06/10 10:44:31;;;;;;;2.00;1.50;;;23.00;62.00;;;23.55;37.14;99345.78;4841491;28;122890;-90
2022/06/10 10:47:14;;;;;;;4.27;1.40;;;23.00;61.40;;;23.61;37.26;99349.06;4851701;28;118590;-91
2022/06/10 10:49:50;;;;;;;2.17;1.40;;;23.10;61.80;;;23.69;37.20;99347.94;4856768;28;118248;-90
2022/06/10 10:52:27;;;;;;;2.43;1.63;;;23.10;61.50;;;23.76;36.96;99345.22;4830797;29;124295;-93
2022/06/10 10:55:00;;;;;;;3.20;1.53;;;23.20;61.20;;;23.86;36.55;99345.69;4849350;28;123850;-92
2022/06/10 10:57:38;;;;;;;5.37;2.83;;;23.20;60.80;;;23.91;36.36;99351.84;4857311;28;120175;-90
2022/06/10 11:00:32;;;;;;;7.33;3.50;;;23.30;60.60;;;23.98;36.39;99357.53;4839491;28;118081;-92
2022/06/10 11:03:03;;;;;;;4.90;2.50;;;23.40;60.30;;;24.08;35.82;99343.91;4833400;28;123355;-91
2022/06/10 11:05:37;;;;;;;4.57;2.40;;;23.50;59.90;;;24.15;35.76;99350.44;4834031;29;124157;-90
2022/06/10 11:08:20;;;;;;;5.30;2.47;;;23.60;59.70;;;24.23;35.33;99348.44;4839041;28;117011;-90
2022/06/10 11:11:12;;;;;;;6.83;2.33;;;23.60;59.70;;;24.32;35.36;99345.31;4850100;28;119414;-92
2022/06/10 11:13:45;;;;;;;3.40;2.03;;;23.70;59.10;;;24.40;35.32;99339.31;4846622;28;123374;-94
2022/06/10 11:16:39;;;;;;;3.97;2.00;;;23.80;58.70;;;24.43;35.01;99343.38;4852735;28;123866;-91
2022/06/10 11:19:25;;;;;;;6.97;2.00;;;24.00;58.40;;;24.45;35.25;99338.19;4837285;28;119564;-91
2022/06/10 11:22:10;;;;;;;3.37;1.70;;;23.90;58.50;;;24.50;35.21;99337.78;4839532;28;118837;-90
2022/06/10 11:24:45;;;;;;;7.20;1.80;;;24.00;58.50;;;24.57;34.99;99337.84;4836150;28;125078;-90
2022/06/10 11:27:27;;;;;;;4.57;1.53;;;24.00;58.00;;;24.57;35.09;99337.84;4850049;28;123357;-90
2022/06/10 11:30:11;;;;;;;2.77;1.50;;;24.00;57.90;;;24.57;35.04;99331.38;4872751;28;121465;-91
2022/06/10 11:33:00;;;;;;;3.33;1.43;;;24.10;57.80;;;24.59;35.00;99334.63;4860974;28;118508;-92
2022/06/10 11:36:01;;;;;;;3.73;1.80;;;24.10;57.70;;;24.53;34.80;99324.88;4850594;28;124660;-90
2022/06/10 11:38:32;;;;;;;3.10;1.70;;;24.10;57.20;;;24.51;34.79;99332.97;4845737;29;123282;-91
2022/06/10 11:41:24;;;;;;;3.60;1.80;;;24.00;57.00;;;24.50;35.20;99334.97;4858570;28;120189;-91
2022/06/10 11:44:02;;;;;;;2.10;1.10;;;24.10;57.30;;;24.52;35.04;99329.72;4857967;28;120076;-92
2022/06/10 11:46:41;;;;;;;2.23;1.40;;;24.00;57.40;;;24.54;35.13;99320.88;4854896;28;123602;-91
2022/06/10 11:49:49;;;;;;;4.07;2.30;;;24.10;57.60;;;24.55;35.13;99328.13;4842749;29;124078;-91
2022/06/10 11:52:32;;;;;;;4.00;1.83;;;24.10;57.40;;;24.55;34.94;99317.63;4856436;28;120460;-92
2022/06/10 11:55:22;;;;;;;5.03;1.97;;;24.10;57.30;;;24.55;34.80;99312.00;4853106;28;119115;-90
2022/06/10 12:01:03;;;;;;;5.40;2.07;;;24.10;57.00;;;24.60;34.91;99314.44;4854583;28;124817;-91
2022/06/10 12:03:49;;;;;;;1.47;1.20;;;24.10;57.00;;;24.66;34.82;99312.88;4834437;29;119212;-91
2022/06/10 12:06:21;;;;;;;3.47;1.83;;;24.10;57.10;;;24.69;34.34;99311.28;4831242;28;119405;-90
2022/06/10 12:09:17;;;;;;;4.03;1.93;;;24.20;56.40;;;24.64;34.22;99308.84;4849515;28;124380;-92
2022/06/10 12:11:55;;;;;;;2.60;1.67;;;24.20;56.20;;;24.66;34.35;99307.22;4848719;28;123395;-90
2022/06/10 12:14:46;;;;;;;1.53;1.30;;;24.20;56.40;;;24.66;34.50;99312.88;4836491;28;119528;-92
2022/06/10 12:17:41;;;;;;;1.40;1.07;;;24.20;56.40;;;24.72;34.34;99298.34;4848938;28;118979;-91
2022/06/10 12:20:31;;;;;;;5.47;1.73;;;24.20;56.20;;;24.83;34.07;99294.38;4838493;29;124011;-89
2022/06/10 12:23:01;;;;;;;2.57;1.43;;;24.30;56.10;;;24.98;34.26;99295.25;4854220;28;124095;-91
2022/06/10 12:25:37;;;;;;;2.40;1.20;;;24.30;56.10;;;25.13;33.66;99296.94;4834036;29;120923;-92
2022/06/10 12:28:42;;;;;;;3.50;2.13;;;24.50;55.70;;;25.30;33.43;99284.06;4835643;28;118978;-91
2022/06/10 12:31:44;;;;;;;9.30;3.87;;;24.60;55.50;;;25.52;33.22;99284.94;4836199;28;124562;-91
2022/06/10 12:34:24;;;;;;;4.37;2.60;;;24.80;55.40;;;25.68;33.29;99280.91;4834171;28;121995;-91
2022/06/10 12:36:59;;;;;;;5.10;1.77;;;24.90;55.00;;;25.74;33.22;99280.13;4852064;28;119396;-91
2022/06/10 12:39:39;;;;;;;2.27;1.40;;;25.10;54.90;;;25.74;32.74;99273.66;4839730;28;117387;-93
2022/06/10 12:42:16;;;;;;;4.70;1.40;;;25.10;53.80;;;25.75;32.11;99267.56;4847424;28;124368;-91
2022/06/10 12:44:52;;;;;;;1.90;1.13;;;25.20;53.00;;;25.78;32.49;99274.44;4835249;29;123318;-92
2022/06/10 12:47:39;;;;;;;2.77;1.20;;;25.20;53.20;;;25.78;32.01;99263.13;4848874;28;120019;-94
2022/06/10 12:50:53;;;;;;;1.53;1.30;;;25.30;53.60;;;25.79;32.02;99276.06;4851673;28;118732;-94
2022/06/10 12:53:26;;;;;;;2.50;1.30;;;25.30;52.60;;;25.88;31.97;99261.56;4793382;29;123927;-91
2022/06/10 12:55:56;;;;;;;2.03;1.40;;;25.30;52.90;;;25.95;32.40;99262.38;4833529;28;123917;-90
2022/06/10 12:58:38;;;;;;;2.50;1.00;;;25.40;53.00;;;25.97;32.20;99265.56;4850141;28;119075;-90
2022/06/10 13:01:13;;;;;;;1.20;1.00;;;25.40;52.60;;;25.95;32.46;99268.03;4838787;28;119306;-91
2022/06/10 13:03:40;;;;;;;2.10;1.10;;;25.40;52.60;;;25.96;32.07;99268.84;4852029;28;124158;-87
2022/06/10 13:06:41;;;;;;;2.37;1.07;;;25.40;52.50;;;25.92;32.42;99268.81;4849849;28;123798;-89
2022/06/10 13:09:10;;;;;;;1.70;1.10;;;25.50;52.40;;;25.94;32.35;99254.25;4851383;28;119286;-92
2022/06/10 13:11:49;;;;;;;1.53;1.10;;;25.50;52.40;;;25.96;31.86;99254.66;4860212;28;118631;-89
2022/06/10 13:14:33;;;;;;;2.00;1.10;;;25.50;52.30;;;26.00;32.04;99255.47;4857948;28;123816;-92
2022/06/10 13:16:59;;;;;;;1.90;1.20;;;25.50;52.40;;;26.06;31.89;99250.19;4853266;28;124108;-91
2022/06/10 13:19:53;;;;;;;3.10;1.40;;;25.50;52.40;;;26.16;31.71;99255.84;4851501;28;120746;-91